Flight Track Log - Related Links

Times and Time Zones

All times are in EDT time to prevent confusion due to time zone crossing. See the TRS310 flight status page for this flight to view local times or setup timezone preferences in your user account.

Time Position Orientation Groundspeed Altitude Reporting Facility
EDT Latitude Longitude Course Direction KTS MPH feet Rate Location/Type
Sun 12:07:03 PM 42.8689 -85.5956 168° South 190 219 2,700  Level Chicago Center
Sun 12:08:05 PM 42.8219 -85.6478 219° Southwest 246 283 4,000 1,645 Climbing Chicago Center
Sun 12:09:07 PM 42.7433 -85.6331 172° South 286 329 6,100 2,419 Climbing Chicago Center
Sun 12:10:09 PM 42.6461 -85.6061 168° South 296 341 9,000 2,274 Climbing Chicago Center
Sun 12:11:11 PM 42.5614 -85.5858 170° South 305 351 10,800 1,452 Climbing Chicago Center
Sun 12:12:00 PM 42.4286 -85.3632 168° South  Level Estimated
Sun 12:12:13 PM 42.4656 -85.5617 169° South 342 394 12,000  Level Chicago Center
Sun 12:13:15 PM 42.3600 -85.5319 168° South 378 435 13,700 1,742 Climbing Chicago Center
Sun 12:14:17 PM 42.2494 -85.5058 170° South 400 460 15,600 1,887 Climbing Chicago Center
Sun 12:15:19 PM 42.1367 -85.4772 169° South 410 472 17,600 2,274 Climbing Chicago Center
Sun 12:16:21 PM 41.9986 -85.4431 170° South 419 482 20,300 2,129 Climbing Chicago Center
Sun 12:17:23 PM 41.8908 -85.4156 169° South 431 496 22,000 1,694 Climbing Chicago Center
Sun 12:18:25 PM 41.7689 -85.3839 169° South 444 511 23,800 1,742 Climbing Chicago Center
Sun 12:19:27 PM 41.6314 -85.3506 170° South 458 527 25,600 1,500 Climbing Chicago Center
Sun 12:20:29 PM 41.5042 -85.3006 164° South 491 565 26,900 1,392 Climbing Chicago Center
Sun 12:21:32 PM 41.3769 -85.2342 159° South 498 573 28,500 1,968 Climbing Chicago Center
Sun 12:22:34 PM 41.2297 -85.1522 157° South 482 555 31,000 1,210 Climbing Chicago Center
Sun 12:23:36 PM 41.1056 -85.1056 164° South 473 544 31,000  Level Chicago Center
Sun 12:24:38 PM 40.9786 -85.0983 178° South 459 528 31,000  Level Chicago Center
Sun 12:25:40 PM 40.8517 -85.0931 178° South 458 527 31,000  Level Chicago Center
Sun 12:26:42 PM 40.7250 -85.0900 179° South 456 525 31,000  Level Chicago Center
Sun 12:27:44 PM 40.5839 -85.0892 180° South 449 517 31,000  Level Chicago Center
Sun 12:28:19 PM 40.5094 -85.0872 179° South 446 513 31,000  Level Indianapolis Center
Sun 12:29:21 PM 40.3831 -85.0836 179° South 451 519 31,000  Level Indianapolis Center
Sun 12:30:22 PM 40.2589 -85.0803 179° South 447 514 31,000  Level Indianapolis Center
Sun 12:31:24 PM 40.1333 -85.0783 179° South 449 517 31,000  Level Indianapolis Center
Sun 12:32:25 PM 40.0081 -85.0753 179° South 449 517 31,000  Level Indianapolis Center
Sun 12:33:27 PM 39.8831 -85.0719 179° South 448 516 31,000  Level Indianapolis Center
Sun 12:34:29 PM 39.7572 -85.0683 179° South 449 517 31,000  Level Indianapolis Center
Sun 12:35:30 PM 39.6339 -85.0664 179° South 444 511 31,000  Level Indianapolis Center
Sun 12:36:32 PM 39.4853 -85.0628 179° South 443 510 31,000  Level Indianapolis Center
Sun 12:37:34 PM 39.3603 -85.0611 179° South 447 514 31,000  Level Indianapolis Center
Sun 12:38:35 PM 39.2353 -85.0575 179° South 448 516 31,000  Level Indianapolis Center
Sun 12:39:37 PM 39.1097 -85.0556 179° South 449 517 31,000  Level Indianapolis Center
Sun 12:40:39 PM 38.9836 -85.0522 179° South 451 519 31,000  Level Indianapolis Center
Sun 12:41:40 PM 38.8575 -85.0497 179° South 452 520 31,000  Level Indianapolis Center
Sun 12:42:42 PM 38.7317 -85.0467 179° South 452 520 31,000  Level Indianapolis Center
Sun 12:43:44 PM 38.5908 -85.0436 179° South 451 519 31,000  Level Indianapolis Center
Sun 12:44:45 PM 38.4653 -85.0406 179° South 450 518 31,000  Level Indianapolis Center
Sun 12:45:47 PM 38.3392 -85.0372 179° South 451 519 31,000  Level Indianapolis Center
Sun 12:46:49 PM 38.2103 -85.0361 180° South 458 527 31,000  Level Indianapolis Center
Sun 12:47:50 PM 38.0631 -85.0317 179° South 454 522 31,000  Level Indianapolis Center
Sun 12:48:52 PM 37.9361 -85.0289 179° South 454 522 31,000  Level Indianapolis Center
Sun 12:49:54 PM 37.8097 -85.0258 179° South 455 524 31,000  Level Indianapolis Center
Sun 12:50:56 PM 37.6853 -85.0239 179° South 448 516 31,000  Level Indianapolis Center
Sun 12:51:57 PM 37.5569 -85.0222 179° South 457 526 31,000  Level Indianapolis Center
Sun 12:52:59 PM 37.4311 -85.0186 179° South 452 520 31,000 97 Level Indianapolis Center
Sun 12:54:01 PM 37.2831 -84.9997 174° South 457 526 31,200 871 Climbing Indianapolis Center
Sun 12:55:03 PM 37.1556 -84.9800 173° South 461 531 32,800 878 Climbing Indianapolis Center
Sun 12:56:04 PM 37.0306 -84.9592 172° South 461 531 33,000 98 Climbing Indianapolis Center
Sun 12:57:06 PM 36.9056 -84.9397 173° South 453 521 33,000  Level Indianapolis Center
Sun 12:58:08 PM 36.7786 -84.9178 172° South 459 528 33,000  Level Indianapolis Center
Sun 12:59:10 PM 36.6522 -84.8994 173° South 456 525 33,000  Level Indianapolis Center
Sun 01:00:12 PM 36.4997 -84.8747 173° South 459 528 33,000  Level Indianapolis Center
Sun 01:01:13 PM 36.3725 -84.8550 173° South 460 529 33,000  Level Indianapolis Center
Sun 01:02:15 PM 36.2453 -84.8342 172° South 460 529 33,000  Level Indianapolis Center
Sun 01:03:17 PM 36.1192 -84.8144 173° South 455 524 33,000  Level Indianapolis Center
Sun 01:03:32 PM 36.0914 -84.8122 176° South 463 533 33,000  Level Atlanta Center
Sun 01:04:32 PM 35.9706 -84.7881 171° South 458 527 33,000  Level Atlanta Center
Sun 01:05:32 PM 35.8247 -84.7661 173° South 468 539 33,000  Level Atlanta Center
Sun 01:06:32 PM 35.6975 -84.7497 174° South 468 539 33,000  Level Atlanta Center
Sun 01:07:32 PM 35.5725 -84.7306 173° South 461 531 33,000  Level Atlanta Center
Sun 01:08:32 PM 35.4472 -84.7117 173° South 461 531 33,000  Level Atlanta Center
Sun 01:09:32 PM 35.3222 -84.6931 173° South 461 531 33,000  Level Atlanta Center
Sun 01:10:32 PM 35.1950 -84.6742 173° South 461 531 33,000  Level Atlanta Center
Sun 01:11:32 PM 35.0700 -84.6556 173° South 461 531 33,000  Level Atlanta Center
Sun 01:12:32 PM 34.9450 -84.6342 172° South 461 531 33,000  Level Atlanta Center
Sun 01:13:32 PM 34.8197 -84.6156 173° South 461 531 33,000  Level Atlanta Center
Sun 01:14:32 PM 34.6925 -84.5972 173° South 461 531 33,000  Level Atlanta Center
Sun 01:15:32 PM 34.5675 -84.5761 172° South 461 531 33,000  Level Atlanta Center
Sun 01:16:32 PM 34.4569 -84.5603 173° South 461 531 33,000  Level Atlanta Center
Sun 01:17:32 PM 34.3297 -84.5419 173° South 461 531 33,000  Level Atlanta Center
Sun 01:18:32 PM 34.2025 -84.5211 172° South 461 531 33,000  Level Atlanta Center
Sun 01:19:32 PM 34.0708 -84.5053 174° South 479 551 33,000  Level Atlanta Center
Sun 01:20:32 PM 33.9500 -84.4844 172° South 472 543 33,000  Level Atlanta Center
Sun 01:21:32 PM 33.8186 -84.4664 173° South 472 543 33,000  Level Atlanta Center
Sun 01:22:32 PM 33.6975 -84.4483 173° South 460 529 33,000  Level Atlanta Center
Sun 01:23:32 PM 33.5578 -84.4078 166° South 460 529 33,000  Level Atlanta Center
Sun 01:24:32 PM 33.4494 -84.3650 162° South 465 535 33,000  Level Atlanta Center
Sun 01:25:32 PM 33.3306 -84.3147 161° South 460 529 33,000  Level Atlanta Center
Sun 01:26:32 PM 33.2117 -84.2672 162° South 460 529 33,000  Level Atlanta Center
Sun 01:27:32 PM 33.0908 -84.2172 161° South 460 529 33,000  Level Atlanta Center
Sun 01:28:32 PM 32.9614 -84.1600 160° South 454 522 33,000  Level Atlanta Center
Sun 01:29:32 PM 32.8383 -84.1081 160° South 454 522 33,000  Level Atlanta Center
Sun 01:30:32 PM 32.7172 -84.0586 161° South 454 522 33,000  Level Atlanta Center
Sun 01:31:32 PM 32.5961 -84.0092 161° South 454 522 33,000  Level Atlanta Center
Sun 01:32:32 PM 32.4772 -83.9600 161° South 460 529 33,000  Level Atlanta Center
Sun 01:33:32 PM 32.3561 -83.9111 161° South 460 529 33,000  Level Atlanta Center
Sun 01:34:32 PM 32.2392 -83.8619 160° South 460 529 33,000  Level Atlanta Center
Sun 01:35:32 PM 32.1158 -83.8133 162° South 460 529 33,000  Level Atlanta Center
Sun 01:36:20 PM 32.0194 -83.7722 160° South 461 531 33,000  Level Jacksonville Center
Sun 01:37:20 PM 31.9028 -83.7247 161° South 461 531 33,000 -50 Level Jacksonville Center
Sun 01:38:20 PM 31.7800 -83.6747 161° South 461 531 32,900  Descending Jacksonville Center
Sun 01:39:20 PM 31.6592 -83.6272 161° South 466 536 33,000 50 Climbing Jacksonville Center
Sun 01:40:20 PM 31.5489 -83.5703 156° South 469 540 33,000  Level Jacksonville Center
Sun 01:41:20 PM 31.4406 -83.4964 150° Southeast 457 526 33,000  Level Jacksonville Center
Sun 01:42:20 PM 31.3344 -83.4181 148° Southeast 452 520 33,000  Level Jacksonville Center
Sun 01:43:20 PM 31.2261 -83.3397 148° Southeast 452 520 33,000  Level Jacksonville Center
Sun 01:44:20 PM 31.1178 -83.2614 148° Southeast 452 520 33,000  Level Jacksonville Center
Sun 01:45:20 PM 31.0094 -83.1833 148° Southeast 457 526 33,000 -350 Level Jacksonville Center
Sun 01:46:20 PM 30.8989 -83.1056 149° Southeast 457 526 32,300 -1,850 Descending Jacksonville Center
Sun 01:47:20 PM 30.7842 -83.0208 148° Southeast 457 526 29,300 -2,700 Descending Jacksonville Center
Sun 01:48:20 PM 30.6694 -82.9458 151° Southeast 451 519 26,900 -1,150 Descending Jacksonville Center
Sun 01:49:20 PM 30.5631 -82.8708 149° Southeast 457 526 27,000  Climbing Jacksonville Center
Sun 01:50:20 PM 30.4586 -82.7914 147° Southeast 452 520 26,900 -150 Descending Jacksonville Center
Sun 01:51:20 PM 30.3478 -82.7144 149° Southeast 452 520 26,700 -500 Descending Jacksonville Center
Sun 01:52:20 PM 30.2433 -82.6400 148° Southeast 447 514 25,900 -850 Descending Jacksonville Center
Sun 01:53:20 PM 30.1344 -82.5683 150° Southeast 452 520 25,000 -450 Descending Jacksonville Center
Sun 01:54:20 PM 30.0300 -82.4944 149° Southeast 447 514 25,000 -50 Level Jacksonville Center
Sun 01:55:20 PM 29.9211 -82.4350 155° Southeast 442 509 24,900 -400 Descending Jacksonville Center
Sun 01:56:20 PM 29.8061 -82.3828 158° South 442 509 24,200 -850 Descending Jacksonville Center
Sun 01:57:20 PM 29.6975 -82.3258 156° South 437 503 23,200 -1,000 Descending Jacksonville Center
Sun 01:58:20 PM 29.5886 -82.2739 157° South 432 497 22,200 -1,000 Descending Jacksonville Center
Sun 01:59:20 PM 29.4819 -82.2222 157° South 426 490 21,200 -1,000 Descending Jacksonville Center
Sun 02:00:20 PM 29.3750 -82.1728 158° South 420 483 20,200 -1,200 Descending Jacksonville Center
Sun 02:01:20 PM 29.2725 -82.1236 157° South 414 476 18,800 -1,850 Descending Jacksonville Center
Sun 02:02:20 PM 29.1742 -82.0744 156° South 402 463 16,500 -2,250 Descending Jacksonville Center
Sun 02:03:20 PM 29.0778 -82.0253 156° South 391 450 14,300 -2,200 Descending Jacksonville Center
Sun 02:04:20 PM 28.9836 -81.9836 159° South 379 436 12,100 -1,550 Descending Jacksonville Center
Sun 02:05:20 PM 28.9061 -81.9439 156° South 361 415 11,200 -900 Descending Jacksonville Center
Sun 02:06:20 PM 28.8556 -81.8733 129° Southeast 306 352 10,300 -1,100 Descending Jacksonville Center
Sun 02:07:20 PM 28.8256 -81.7811 110° East 294 338 9,000 -690 Descending Jacksonville Center
Sun 02:08:13 PM 28.8000 -81.7000 110° East 270 311 9,000  Level Orlando TRACON
Sun 02:09:08 PM 28.7833 -81.6333 106° East 237 273 9,000 -496 Level Orlando TRACON
Sun 02:10:14 PM 28.7333 -81.5500 124° Southeast 244 281 8,000 -1,050 Descending Orlando TRACON
Sun 02:11:08 PM 28.7167 -81.5000 111° Southeast 245 282 6,900 -526 Descending Orlando TRACON
Sun 02:12:08 PM 28.7333 -81.4167 77° East 242 278 7,000 -700 Climbing Orlando TRACON
Sun 02:13:08 PM 28.7333 -81.3500 90° East 241 277 5,500 -1,150 Descending Orlando TRACON
Sun 02:14:08 PM 28.7333 -81.2833 90° East 199 229 4,700 -950 Descending Orlando TRACON
Sun 02:15:08 PM 28.6833 -81.2833 180° South 195 224 3,600 -947 Descending Orlando TRACON
Sun 02:16:02 PM 28.6333 -81.2833 180° South 183 211 2,900 -421 Descending Orlando TRACON
Sun 02:17:02 PM 28.5833 -81.2833 180° South 177 204 2,800 -524 Descending Orlando TRACON
Sun 02:18:08 PM 28.5333 -81.2833 180° South 171 197 1,800 -810 Descending Orlando TRACON
Sun 02:19:08 PM 28.5000 -81.2833 180° South 134 154 1,100 -700 Descending Orlando TRACON
Sun 02:21:00 PM 28.4294 -81.3090 184° South  Level Estimated
Sun 02:28:00 PM 28.4294 -81.3090 184° South  Level Estimated
Sun 02:29:00 PM 28.4294 -81.3090 184° South  Level Estimated
Sun 02:30:00 PM 28.4294 -81.3090 184° South  Level Estimated
Sun 02:31:00 PM 28.4294 -81.3090 184° South  Level Estimated

Login

Don't have an account? Register now (free) for customized features, flight alerts, and more!